createdAt,value
2022-11-26T00:02:29.988Z,2.38
2022-11-26T00:04:58.921Z,2.58
2022-11-26T00:07:29.645Z,2.30
2022-11-26T00:09:58.653Z,2.10
2022-11-26T00:12:28.599Z,2.17
2022-11-26T00:14:55.758Z,1.90
2022-11-26T00:17:23.325Z,2.50
2022-11-26T00:19:50.539Z,2.03
2022-11-26T00:22:32.504Z,2.35
2022-11-26T00:24:59.715Z,2.22
2022-11-26T00:27:28.412Z,2.28
2022-11-26T00:29:55.691Z,1.63
2022-11-26T00:32:25.371Z,2.47
2022-11-26T00:34:53.271Z,2.28
2022-11-26T00:37:35.949Z,1.85
2022-11-26T00:40:03.288Z,2.22
2022-11-26T00:42:30.411Z,1.97
2022-11-26T00:44:57.463Z,2.00
2022-11-26T00:47:24.584Z,2.15
2022-11-26T00:49:51.633Z,3.03
2022-11-26T00:52:33.787Z,1.98
2022-11-26T00:55:06.405Z,2.53
2022-11-26T00:57:33.623Z,1.92
2022-11-26T01:00:00.670Z,2.25
2022-11-26T01:02:27.928Z,2.25
2022-11-26T01:04:54.954Z,3.37
2022-11-26T01:07:22.108Z,2.55
2022-11-26T01:09:49.360Z,2.65
2022-11-26T01:12:16.401Z,2.30
2022-11-26T01:14:43.582Z,3.40
2022-11-26T01:17:12.053Z,2.67
2022-11-26T01:19:39.201Z,2.45
2022-11-26T01:22:06.262Z,2.08
2022-11-26T01:24:33.491Z,2.00
2022-11-26T01:27:00.571Z,2.60
2022-11-26T01:29:27.709Z,2.58
2022-11-26T01:31:54.859Z,2.13
2022-11-26T01:34:22.047Z,1.60
2022-11-26T01:36:49.113Z,2.40
2022-11-26T01:39:19.626Z,1.95
2022-11-26T01:42:07.283Z,2.00
2022-11-26T01:44:36.715Z,1.90
2022-11-26T01:47:21.517Z,2.60
2022-11-26T01:50:26.136Z,1.92
2022-11-26T01:52:59.913Z,2.45
2022-11-26T01:55:35.987Z,1.60
2022-11-26T01:58:05.711Z,2.00
2022-11-26T02:00:33.316Z,1.83
2022-11-26T02:03:01.329Z,2.47
2022-11-26T02:05:31.522Z,1.98
2022-11-26T02:07:59.185Z,2.90
2022-11-26T02:10:26.346Z,2.30
2022-11-26T02:12:53.504Z,2.05
2022-11-26T02:15:23.310Z,2.03
2022-11-26T02:18:03.870Z,3.00
2022-11-26T02:21:03.299Z,2.13
2022-11-26T02:24:04.098Z,1.60
2022-11-26T02:27:19.919Z,1.65
2022-11-26T02:30:05.453Z,1.95
2022-11-26T02:33:01.736Z,1.92
2022-11-26T02:35:41.745Z,1.70
2022-11-26T02:38:18.627Z,2.47
2022-11-26T02:40:45.727Z,1.55
2022-11-26T02:43:15.315Z,2.47
2022-11-26T02:46:05.173Z,1.90
2022-11-26T02:48:36.926Z,1.52
2022-11-26T02:51:10.014Z,1.52
2022-11-26T02:53:39.101Z,1.95
2022-11-26T02:56:14.257Z,1.58
2022-11-26T02:58:41.892Z,1.60
2022-11-26T03:01:35.300Z,2.10
2022-11-26T03:04:09.381Z,2.20
2022-11-26T03:06:38.436Z,1.50
2022-11-26T03:09:06.816Z,1.88
2022-11-26T03:11:34.393Z,2.22
2022-11-26T03:14:01.649Z,1.65
2022-11-26T03:16:28.788Z,1.50
2022-11-26T03:18:56.112Z,2.33
2022-11-26T03:21:23.300Z,2.35
2022-11-26T03:23:50.365Z,2.53
2022-11-26T03:26:17.649Z,3.22
2022-11-26T03:28:44.800Z,2.20
2022-11-26T03:31:11.873Z,1.80
2022-11-26T03:33:39.027Z,2.10
2022-11-26T03:36:06.460Z,2.45
2022-11-26T03:38:33.545Z,1.95
2022-11-26T03:41:04.902Z,3.00
2022-11-26T03:43:32.154Z,2.33
2022-11-26T03:45:59.325Z,2.03
2022-11-26T03:48:26.435Z,2.10
2022-11-26T03:50:53.488Z,2.58
2022-11-26T03:53:20.559Z,3.30
2022-11-26T03:55:47.893Z,2.72
2022-11-26T03:58:14.909Z,2.77
2022-11-26T04:00:42.053Z,2.30
2022-11-26T04:03:09.297Z,2.97
2022-11-26T04:05:36.413Z,2.00
2022-11-26T04:08:03.565Z,1.88
2022-11-26T04:10:30.750Z,2.78
2022-11-26T04:12:58.070Z,2.55
2022-11-26T04:15:25.189Z,1.77
2022-11-26T04:17:52.240Z,2.10
2022-11-26T04:20:19.406Z,2.53
2022-11-26T04:22:46.504Z,2.60
2022-11-26T04:25:13.691Z,2.97
2022-11-26T04:27:40.822Z,2.20
2022-11-26T04:30:09.238Z,2.85
2022-11-26T04:32:36.327Z,2.13
2022-11-26T04:35:03.651Z,2.63
2022-11-26T04:37:34.172Z,2.57
2022-11-26T04:40:01.457Z,1.88
2022-11-26T04:42:28.438Z,2.50
2022-11-26T04:44:55.553Z,2.70
2022-11-26T04:47:22.631Z,1.73
2022-11-26T04:49:49.827Z,1.77
2022-11-26T04:52:16.905Z,1.92
2022-11-26T04:54:44.012Z,1.60
2022-11-26T04:57:11.229Z,2.33
2022-11-26T04:59:38.444Z,1.83
2022-11-26T05:02:05.638Z,1.93
2022-11-26T05:04:32.753Z,1.73
2022-11-26T05:06:59.920Z,1.65
2022-11-26T05:09:27.296Z,2.30
2022-11-26T05:11:54.379Z,2.00
2022-11-26T05:14:21.512Z,2.63
2022-11-26T05:16:48.707Z,2.67
2022-11-26T05:19:16.366Z,2.40
2022-11-26T05:21:43.460Z,2.15
2022-11-26T05:24:10.505Z,2.55
2022-11-26T05:26:37.691Z,2.85
2022-11-26T05:29:04.850Z,3.00
2022-11-26T05:31:32.004Z,2.40
2022-11-26T05:33:59.165Z,2.13
2022-11-26T05:36:26.212Z,2.95
2022-11-26T05:38:53.481Z,2.50
2022-11-26T05:41:20.667Z,2.20
2022-11-26T05:43:47.814Z,2.15
2022-11-26T05:46:17.541Z,2.40
2022-11-26T05:48:44.976Z,2.72
2022-11-26T05:51:12.031Z,2.77
2022-11-26T05:53:39.141Z,2.65
2022-11-26T05:56:06.362Z,2.13
2022-11-26T05:58:33.422Z,2.40
2022-11-26T06:01:00.571Z,3.45
2022-11-26T06:03:27.800Z,3.25
2022-11-26T06:05:55.093Z,2.17
2022-11-26T06:08:22.134Z,2.10
2022-11-26T06:10:49.302Z,2.70
2022-11-26T06:13:16.786Z,2.50
2022-11-26T06:15:43.872Z,2.50
2022-11-26T06:18:11.057Z,2.53
2022-11-26T06:20:38.695Z,3.22
2022-11-26T06:23:05.762Z,2.20
2022-11-26T06:25:32.882Z,2.03
2022-11-26T06:28:00.036Z,2.10
2022-11-26T06:30:27.340Z,2.60
2022-11-26T06:32:54.442Z,2.10
2022-11-26T06:35:21.606Z,3.28
2022-11-26T06:37:48.770Z,2.95
2022-11-26T06:40:19.215Z,3.05
2022-11-26T06:42:53.432Z,2.50
2022-11-26T06:45:22.385Z,2.53
2022-11-26T06:47:51.629Z,2.75
2022-11-26T06:50:21.122Z,2.40
2022-11-26T06:52:54.670Z,2.42
2022-11-26T06:55:22.275Z,2.28
2022-11-26T06:57:50.933Z,2.42
2022-11-26T07:00:18.330Z,2.47
2022-11-26T07:02:45.602Z,2.20
2022-11-26T07:05:12.756Z,1.87
2022-11-26T07:07:40.135Z,3.07
2022-11-26T07:10:08.162Z,3.07
2022-11-26T07:12:35.200Z,2.60
2022-11-26T07:15:02.253Z,3.35
2022-11-26T07:17:29.640Z,3.28
2022-11-26T07:19:56.647Z,3.07
2022-11-26T07:22:23.736Z,2.22
2022-11-26T07:24:50.932Z,2.22
2022-11-26T07:27:18.050Z,2.67
2022-11-26T07:29:45.181Z,2.90
2022-11-26T07:32:12.423Z,3.30
2022-11-26T07:34:39.608Z,2.67
2022-11-26T07:37:06.849Z,2.63
2022-11-26T07:39:33.899Z,2.88
2022-11-26T07:42:01.037Z,2.55
2022-11-26T07:44:28.093Z,2.58
2022-11-26T07:46:55.249Z,2.92
2022-11-26T07:49:22.314Z,3.38
2022-11-26T07:51:49.499Z,2.75
2022-11-26T07:54:16.513Z,3.00
2022-11-26T07:56:43.573Z,2.35
2022-11-26T07:59:11.154Z,2.58
2022-11-26T08:01:38.293Z,3.50
2022-11-26T08:04:06.382Z,3.28
2022-11-26T08:06:34.210Z,2.58
2022-11-26T08:09:02.301Z,2.92
2022-11-26T08:11:32.352Z,3.15
2022-11-26T08:14:04.905Z,2.15
2022-11-26T08:16:32.629Z,2.40
2022-11-26T08:19:03.686Z,2.97
2022-11-26T08:21:30.983Z,2.45
2022-11-26T08:23:58.087Z,2.80
2022-11-26T08:26:33.500Z,1.90
2022-11-26T08:29:01.190Z,2.17
2022-11-26T08:31:28.736Z,2.37
2022-11-26T08:33:58.081Z,2.38
2022-11-26T08:36:26.371Z,2.30
2022-11-26T08:38:53.490Z,2.10
2022-11-26T08:41:21.066Z,2.03
2022-11-26T08:46:36.896Z,1.40
2022-11-26T08:49:04.787Z,1.50
2022-11-26T08:51:31.870Z,1.25
2022-11-26T08:54:02.225Z,2.00
2022-11-26T08:56:29.444Z,1.77
2022-11-26T08:58:56.506Z,1.95
2022-11-26T09:01:26.048Z,1.60
2022-11-26T09:03:56.273Z,1.88
2022-11-26T09:06:25.415Z,1.85
2022-11-26T09:08:52.561Z,1.77
2022-11-26T09:11:19.857Z,2.47
2022-11-26T09:13:46.870Z,2.47
2022-11-26T09:16:14.032Z,2.10
2022-11-26T09:18:41.186Z,1.40
2022-11-26T09:21:08.239Z,1.25
2022-11-26T09:23:35.383Z,1.85
2022-11-26T09:26:02.704Z,1.55
2022-11-26T09:28:29.817Z,2.00
2022-11-26T09:30:58.090Z,1.67
2022-11-26T09:33:25.783Z,2.20
2022-11-26T09:35:53.341Z,1.60
2022-11-26T09:38:20.451Z,1.60
2022-11-26T09:40:56.870Z,1.60
2022-11-26T09:43:36.031Z,1.67
2022-11-26T09:46:03.952Z,2.33
2022-11-26T09:48:33.762Z,1.95
2022-11-26T09:51:08.498Z,1.20
2022-11-26T09:53:40.533Z,1.70
2022-11-26T09:56:13.447Z,1.80
2022-11-26T09:58:48.531Z,2.40
2022-11-26T10:01:20.948Z,1.52
2022-11-26T10:03:48.318Z,1.80
2022-11-26T10:06:30.350Z,1.98
2022-11-26T10:09:05.877Z,2.25
2022-11-26T10:11:37.704Z,1.83
2022-11-26T10:14:23.529Z,1.83
2022-11-26T10:17:17.392Z,1.92
2022-11-26T10:20:15.564Z,1.70
2022-11-26T10:22:56.871Z,2.08
2022-11-26T10:25:29.391Z,1.77
2022-11-26T10:27:59.177Z,1.95
2022-11-26T10:30:29.143Z,1.80
2022-11-26T10:33:00.737Z,2.40
2022-11-26T10:35:29.516Z,2.25
2022-11-26T10:37:57.317Z,2.40
2022-11-26T10:40:27.153Z,2.40
2022-11-26T10:43:06.248Z,2.45
2022-11-26T10:45:37.751Z,2.63
2022-11-26T10:48:27.697Z,2.40
2022-11-26T10:50:57.750Z,2.45
2022-11-26T10:53:26.676Z,2.35
2022-11-26T10:55:57.416Z,2.60
2022-11-26T10:58:27.937Z,2.90
2022-11-26T11:00:59.126Z,2.85
2022-11-26T11:06:27.934Z,2.20
2022-11-26T11:08:55.435Z,3.17
2022-11-26T11:11:24.218Z,2.63
2022-11-26T11:13:51.827Z,2.28
2022-11-26T11:16:39.136Z,2.83
2022-11-26T11:19:21.657Z,2.90
2022-11-26T11:21:49.060Z,2.72
2022-11-26T11:24:23.687Z,5.37
2022-11-26T11:26:52.637Z,3.47
2022-11-26T11:29:33.135Z,3.45
2022-11-26T11:32:03.962Z,3.60
2022-11-26T11:34:40.637Z,4.32
2022-11-26T11:37:16.151Z,3.70
2022-11-26T11:39:43.756Z,3.15
2022-11-26T11:42:25.830Z,3.80
2022-11-26T11:44:52.981Z,3.20
2022-11-26T11:47:36.407Z,2.45
2022-11-26T11:50:38.210Z,3.38
2022-11-26T11:53:17.546Z,3.67
2022-11-26T11:55:58.092Z,3.08
2022-11-26T11:58:45.316Z,4.43
2022-11-26T12:01:48.690Z,2.53
2022-11-26T12:04:43.886Z,4.53
2022-11-26T12:07:20.090Z,3.47
2022-11-26T12:09:59.139Z,4.25
2022-11-26T12:12:31.569Z,4.25
2022-11-26T12:15:04.635Z,4.82
2022-11-26T12:17:34.659Z,4.65
2022-11-26T12:20:14.496Z,5.47
2022-11-26T12:22:46.277Z,4.40
2022-11-26T12:25:35.160Z,4.95
2022-11-26T12:28:14.228Z,20.45
2022-11-26T12:30:53.762Z,9.45
2022-11-26T12:33:27.135Z,5.70
2022-11-26T12:35:59.260Z,6.72
2022-11-26T12:38:52.346Z,5.07
2022-11-26T12:41:24.750Z,5.97
2022-11-26T12:44:04.359Z,4.90
2022-11-26T12:46:42.630Z,4.93
2022-11-26T12:49:28.488Z,6.05
2022-11-26T12:52:29.531Z,4.97
2022-11-26T12:55:05.580Z,4.65
2022-11-26T12:57:45.944Z,5.60
2022-11-26T13:00:25.301Z,4.88
2022-11-26T13:02:53.945Z,4.13
2022-11-26T13:05:29.777Z,5.13
2022-11-26T13:08:18.072Z,3.78
2022-11-26T13:11:11.306Z,4.53
2022-11-26T13:13:53.429Z,4.10
2022-11-26T13:16:35.393Z,5.15
2022-11-26T13:19:10.207Z,4.20
2022-11-26T13:21:49.872Z,3.63
2022-11-26T13:24:26.585Z,3.97
2022-11-26T13:27:20.339Z,3.53
2022-11-26T13:29:57.910Z,4.00
2022-11-26T13:32:48.129Z,3.88
2022-11-26T13:35:29.461Z,3.30
2022-11-26T13:38:13.784Z,5.53
2022-11-26T13:41:13.043Z,4.13
2022-11-26T13:44:18.307Z,3.25
2022-11-26T13:47:08.844Z,2.95
2022-11-26T13:49:55.004Z,3.70
2022-11-26T13:52:35.664Z,3.80
2022-11-26T13:55:11.920Z,3.70
2022-11-26T13:57:43.880Z,5.07
2022-11-26T14:00:14.414Z,4.80
2022-11-26T14:02:43.605Z,3.38
2022-11-26T14:05:14.419Z,3.53
2022-11-26T14:07:43.500Z,3.47
2022-11-26T14:10:35.331Z,3.08
2022-11-26T14:13:02.396Z,2.80
2022-11-26T14:15:41.768Z,4.60
2022-11-26T14:18:13.689Z,2.35
2022-11-26T14:20:59.232Z,2.40
2022-11-26T14:23:40.972Z,2.15
2022-11-26T14:26:19.088Z,2.47
2022-11-26T14:28:46.239Z,2.10
2022-11-26T14:31:15.585Z,2.50
2022-11-26T14:33:44.250Z,6.35
2022-11-26T14:36:21.392Z,5.88
2022-11-26T14:39:09.468Z,4.50
2022-11-26T14:41:42.535Z,3.50
2022-11-26T14:44:17.882Z,4.45
2022-11-26T14:46:48.328Z,4.47
2022-11-26T14:49:18.358Z,4.93
2022-11-26T14:51:47.901Z,5.22
2022-11-26T14:54:24.300Z,4.40
2022-11-26T14:56:51.401Z,4.03
2022-11-26T14:59:19.237Z,3.63
2022-11-26T15:01:46.627Z,3.25
2022-11-26T15:04:25.033Z,2.65
2022-11-26T15:06:52.229Z,3.53
2022-11-26T15:09:22.153Z,2.95
2022-11-26T15:12:11.171Z,3.10
2022-11-26T15:14:42.821Z,3.85
2022-11-26T15:17:15.801Z,4.03
2022-11-26T15:19:43.800Z,3.25
2022-11-26T15:22:34.263Z,3.50
2022-11-26T15:25:01.863Z,2.88
2022-11-26T15:27:36.106Z,3.15
2022-11-26T15:30:24.726Z,2.58
2022-11-26T15:33:10.093Z,2.80
2022-11-26T15:35:37.600Z,3.33
2022-11-26T15:38:14.400Z,3.53
2022-11-26T15:41:19.120Z,5.93
2022-11-26T15:43:50.273Z,3.85
2022-11-26T15:46:22.116Z,4.00
2022-11-26T15:48:53.746Z,4.57
2022-11-26T15:51:38.240Z,2.90
2022-11-26T15:54:38.394Z,3.25
2022-11-26T15:57:26.060Z,3.55
2022-11-26T16:02:24.967Z,2.63
2022-11-26T16:04:57.360Z,3.05
2022-11-26T16:07:27.365Z,3.47
2022-11-26T16:10:16.338Z,3.13
2022-11-26T16:12:43.497Z,2.92
2022-11-26T16:15:25.289Z,3.40
2022-11-26T16:17:53.637Z,3.38
2022-11-26T16:20:24.082Z,3.90
2022-11-26T16:22:54.228Z,4.18
2022-11-26T16:25:21.590Z,3.10
2022-11-26T16:28:13.385Z,2.90
2022-11-26T16:30:42.977Z,3.08
2022-11-26T16:33:10.196Z,3.00
2022-11-26T16:35:46.138Z,2.65
2022-11-26T16:38:21.705Z,2.75
2022-11-26T16:40:49.721Z,3.25
2022-11-26T16:43:17.330Z,3.40
2022-11-26T16:45:44.601Z,2.88
2022-11-26T16:48:24.022Z,3.38
2022-11-26T16:50:55.531Z,3.60
2022-11-26T16:53:23.586Z,3.33
2022-11-26T16:55:53.027Z,3.47
2022-11-26T16:58:32.488Z,3.25
2022-11-26T17:00:59.844Z,3.47
2022-11-26T17:03:27.830Z,3.15
2022-11-26T17:08:23.837Z,3.15
2022-11-26T17:10:50.959Z,2.78
2022-11-26T17:13:18.620Z,2.53
2022-11-26T17:15:46.148Z,3.47
2022-11-26T17:18:23.063Z,3.10
2022-11-26T17:20:51.207Z,3.55
2022-11-26T17:25:48.476Z,3.58
2022-11-26T17:28:15.713Z,3.97
2022-11-26T17:30:44.649Z,4.15
2022-11-26T17:33:12.125Z,4.68
2022-11-26T17:35:39.290Z,5.90
2022-11-26T17:38:21.140Z,5.60
2022-11-26T17:40:48.413Z,5.97
2022-11-26T17:43:15.581Z,5.65
2022-11-26T17:45:42.982Z,6.00
2022-11-26T17:48:13.111Z,6.40
2022-11-26T17:50:40.903Z,6.15
2022-11-26T17:53:08.196Z,6.15
2022-11-26T17:55:35.519Z,6.53
2022-11-26T17:58:02.564Z,7.03
2022-11-26T18:00:29.878Z,7.38
2022-11-26T18:02:57.697Z,6.60
2022-11-26T18:05:24.932Z,6.50
2022-11-26T18:07:52.136Z,6.40
2022-11-26T18:10:21.510Z,5.60
2022-11-26T18:12:49.493Z,5.65
2022-11-26T18:15:19.516Z,5.50
2022-11-26T18:17:52.388Z,5.53
2022-11-26T18:20:22.940Z,4.78
2022-11-26T18:22:52.480Z,5.03
2022-11-26T18:25:19.622Z,4.63
2022-11-26T18:27:46.950Z,4.47
2022-11-26T18:30:15.154Z,3.30
2022-11-26T18:32:42.312Z,4.07
2022-11-26T18:35:10.166Z,4.18
2022-11-26T18:37:38.695Z,3.17
2022-11-26T18:40:11.904Z,4.30
2022-11-26T18:42:39.175Z,4.30
2022-11-26T18:45:08.368Z,3.17
2022-11-26T18:47:35.451Z,2.85
2022-11-26T18:50:02.545Z,3.80
2022-11-26T18:52:29.636Z,3.63
2022-11-26T18:54:56.821Z,3.43
2022-11-26T18:57:23.933Z,2.85
2022-11-26T18:59:51.425Z,3.07
2022-11-26T19:02:18.580Z,3.50
2022-11-26T19:04:45.928Z,3.53
2022-11-26T19:07:13.365Z,3.33
2022-11-26T19:09:40.768Z,3.03
2022-11-26T19:12:08.259Z,3.90
2022-11-26T19:14:35.300Z,3.30
2022-11-26T19:17:02.590Z,4.80
2022-11-26T19:19:29.659Z,3.00
2022-11-26T19:22:00.728Z,3.60
2022-11-26T19:24:29.603Z,3.65
2022-11-26T19:29:24.067Z,3.15
2022-11-26T19:31:51.246Z,4.13
2022-11-26T19:34:18.403Z,3.45
2022-11-26T19:36:45.636Z,3.63
2022-11-26T19:39:12.656Z,4.77
2022-11-26T19:41:39.933Z,6.85
2022-11-26T19:44:07.150Z,6.33
2022-11-26T19:46:36.700Z,6.57
2022-11-26T19:49:04.085Z,8.80
2022-11-26T19:51:31.151Z,9.75
2022-11-26T19:53:58.709Z,9.45
2022-11-26T19:56:28.518Z,10.23
2022-11-26T19:58:56.100Z,8.02
2022-11-26T20:01:23.877Z,7.35
2022-11-26T20:03:51.350Z,8.63
2022-11-26T20:06:21.556Z,13.02
2022-11-26T20:08:49.797Z,11.48
2022-11-26T20:11:17.990Z,8.60
2022-11-26T20:13:47.219Z,9.35
2022-11-26T20:16:20.388Z,9.25
2022-11-26T20:18:48.187Z,10.02
2022-11-26T20:21:21.650Z,10.00
2022-11-26T20:23:50.278Z,11.32
2022-11-26T20:26:17.309Z,9.68
2022-11-26T20:28:44.918Z,9.40
2022-11-26T20:31:13.654Z,14.38
2022-11-26T20:33:41.549Z,15.65
2022-11-26T20:36:10.856Z,11.00
2022-11-26T20:38:37.923Z,11.02
2022-11-26T20:41:10.117Z,10.93
2022-11-26T20:43:37.997Z,9.80
2022-11-26T20:46:06.961Z,8.60
2022-11-26T20:48:35.602Z,8.32
2022-11-26T20:51:05.356Z,8.60
2022-11-26T20:53:34.441Z,10.18
2022-11-26T20:56:02.553Z,10.25
2022-11-26T21:00:57.053Z,11.47
2022-11-26T21:03:26.032Z,11.25
2022-11-26T21:05:53.233Z,9.35
2022-11-26T21:08:22.761Z,7.17
2022-11-26T21:10:50.493Z,6.68
2022-11-26T21:13:18.829Z,4.22
2022-11-26T21:15:46.617Z,4.80
2022-11-26T21:18:14.254Z,3.70
2022-11-26T21:20:42.830Z,3.55
2022-11-26T21:23:10.928Z,5.25
2022-11-26T21:25:39.984Z,7.18
2022-11-26T21:28:07.955Z,7.65
2022-11-26T21:33:08.790Z,5.88
2022-11-26T21:35:37.201Z,5.05
2022-11-26T21:38:05.673Z,7.25
2022-11-26T21:40:33.036Z,6.35
2022-11-26T21:43:00.258Z,4.63
2022-11-26T21:45:27.404Z,4.35
2022-11-26T21:47:54.776Z,3.20
2022-11-26T21:50:21.858Z,3.20
2022-11-26T21:52:49.105Z,4.40
2022-11-26T21:55:16.208Z,4.53
2022-11-26T21:57:43.212Z,4.63
2022-11-26T22:00:10.748Z,4.57
2022-11-26T22:02:38.043Z,6.70
2022-11-26T22:05:05.342Z,6.40
2022-11-26T22:07:32.524Z,6.65
2022-11-26T22:09:59.671Z,6.50
2022-11-26T22:12:26.989Z,4.80
2022-11-26T22:14:54.106Z,5.25
2022-11-26T22:17:21.170Z,4.95
2022-11-26T22:19:48.330Z,4.18
2022-11-26T22:22:15.409Z,4.13
2022-11-26T22:24:42.603Z,4.80
2022-11-26T22:27:10.255Z,5.70
2022-11-26T22:29:37.997Z,5.30
2022-11-26T22:32:05.205Z,5.68
2022-11-26T22:34:32.285Z,4.60
2022-11-26T22:36:59.464Z,4.20
2022-11-26T22:39:26.544Z,4.70
2022-11-26T22:41:53.674Z,5.27
2022-11-26T22:44:20.700Z,5.37
2022-11-26T22:46:47.987Z,5.70
2022-11-26T22:49:16.622Z,6.13
2022-11-26T22:51:43.869Z,6.15
2022-11-26T22:54:13.500Z,6.00
2022-11-26T22:56:40.981Z,5.22
2022-11-26T22:59:10.558Z,6.70
2022-11-26T23:01:38.368Z,5.68
2022-11-26T23:04:08.468Z,4.68
2022-11-26T23:06:36.559Z,4.80
2022-11-26T23:09:06.450Z,3.53
2022-11-26T23:11:37.060Z,4.15
2022-11-26T23:14:05.306Z,4.20
2022-11-26T23:16:32.555Z,4.70
2022-11-26T23:18:59.692Z,4.20
2022-11-26T23:21:32.577Z,4.00
2022-11-26T23:24:00.144Z,4.40
2022-11-26T23:26:32.060Z,4.80
2022-11-26T23:29:01.026Z,4.18
2022-11-26T23:31:37.562Z,6.13
2022-11-26T23:34:05.287Z,4.85
2022-11-26T23:36:33.437Z,4.88
2022-11-26T23:39:02.127Z,8.05
2022-11-26T23:41:29.693Z,9.30
2022-11-26T23:43:57.129Z,11.40
2022-11-26T23:46:27.244Z,10.02
2022-11-26T23:48:54.714Z,7.82
2022-11-26T23:51:24.740Z,10.07
2022-11-26T23:53:52.905Z,14.07
2022-11-26T23:56:29.129Z,10.52
2022-11-26T23:58:59.390Z,16.13
